sensor_id;sensor_type;location;lat;lon;timestamp;P1;durP1;ratioP1;P2;durP2;ratioP2
80247;SDS011;69560;52.206;21.018;2024-02-23T00:01:05;14.90;;;12.50;;
80247;SDS011;69560;52.206;21.018;2024-02-23T00:03:49;17.40;;;12.60;;
80247;SDS011;69560;52.206;21.018;2024-02-23T00:06:16;12.90;;;11.40;;
80247;SDS011;69560;52.206;21.018;2024-02-23T00:08:43;19.10;;;14.20;;
80247;SDS011;69560;52.206;21.018;2024-02-23T00:11:09;17.10;;;13.30;;
80247;SDS011;69560;52.206;21.018;2024-02-23T00:13:36;14.50;;;12.40;;
80247;SDS011;69560;52.206;21.018;2024-02-23T00:16:02;14.00;;;12.30;;
80247;SDS011;69560;52.206;21.018;2024-02-23T00:18:29;16.80;;;12.90;;
80247;SDS011;69560;52.206;21.018;2024-02-23T00:20:56;15.00;;;13.20;;
80247;SDS011;69560;52.206;21.018;2024-02-23T00:23:22;16.80;;;13.00;;
80247;SDS011;69560;52.206;21.018;2024-02-23T00:25:49;13.60;;;11.40;;
80247;SDS011;69560;52.206;21.018;2024-02-23T00:28:15;15.10;;;13.00;;
80247;SDS011;69560;52.206;21.018;2024-02-23T00:30:42;17.10;;;12.50;;
80247;SDS011;69560;52.206;21.018;2024-02-23T00:33:08;15.60;;;12.60;;
80247;SDS011;69560;52.206;21.018;2024-02-23T00:35:36;13.90;;;12.10;;
80247;SDS011;69560;52.206;21.018;2024-02-23T00:38:03;17.10;;;12.50;;
80247;SDS011;69560;52.206;21.018;2024-02-23T00:40:29;15.30;;;12.30;;
80247;SDS011;69560;52.206;21.018;2024-02-23T00:42:56;15.30;;;11.30;;
80247;SDS011;69560;52.206;21.018;2024-02-23T00:45:22;15.10;;;12.10;;
80247;SDS011;69560;52.206;21.018;2024-02-23T00:47:49;14.20;;;12.20;;
80247;SDS011;69560;52.206;21.018;2024-02-23T00:50:16;14.40;;;12.40;;
80247;SDS011;69560;52.206;21.018;2024-02-23T00:52:42;13.90;;;11.90;;
80247;SDS011;69560;52.206;21.018;2024-02-23T00:55:09;15.30;;;12.40;;
80247;SDS011;69560;52.206;21.018;2024-02-23T00:57:36;14.40;;;12.10;;
80247;SDS011;69560;52.206;21.018;2024-02-23T01:00:04;12.80;;;10.90;;
80247;SDS011;69560;52.206;21.018;2024-02-23T01:02:32;11.90;;;10.60;;
80247;SDS011;69560;52.206;21.018;2024-02-23T01:05:01;13.50;;;11.80;;
80247;SDS011;69560;52.206;21.018;2024-02-23T01:07:28;13.20;;;11.80;;
80247;SDS011;69560;52.206;21.018;2024-02-23T01:09:55;14.00;;;12.50;;
80247;SDS011;69560;52.206;21.018;2024-02-23T01:12:21;13.50;;;11.30;;
80247;SDS011;69560;52.206;21.018;2024-02-23T01:14:48;12.60;;;11.10;;
80247;SDS011;69560;52.206;21.018;2024-02-23T01:17:15;13.10;;;11.30;;
80247;SDS011;69560;52.206;21.018;2024-02-23T01:19:43;12.80;;;11.40;;
80247;SDS011;69560;52.206;21.018;2024-02-23T01:22:10;12.20;;;10.60;;
80247;SDS011;69560;52.206;21.018;2024-02-23T01:24:36;14.60;;;11.70;;
80247;SDS011;69560;52.206;21.018;2024-02-23T01:27:03;12.40;;;11.00;;
80247;SDS011;69560;52.206;21.018;2024-02-23T01:29:29;12.70;;;10.90;;
80247;SDS011;69560;52.206;21.018;2024-02-23T01:31:56;13.90;;;11.70;;
80247;SDS011;69560;52.206;21.018;2024-02-23T01:34:22;12.10;;;10.70;;
80247;SDS011;69560;52.206;21.018;2024-02-23T01:36:49;15.10;;;12.00;;
80247;SDS011;69560;52.206;21.018;2024-02-23T01:39:16;14.10;;;11.30;;
80247;SDS011;69560;52.206;21.018;2024-02-23T01:41:42;12.00;;;10.60;;
80247;SDS011;69560;52.206;21.018;2024-02-23T01:44:10;12.60;;;10.80;;
80247;SDS011;69560;52.206;21.018;2024-02-23T01:46:37;13.10;;;10.40;;
80247;SDS011;69560;52.206;21.018;2024-02-23T01:49:05;14.10;;;11.50;;
80247;SDS011;69560;52.206;21.018;2024-02-23T01:51:33;11.40;;;10.20;;
80247;SDS011;69560;52.206;21.018;2024-02-23T01:54:01;11.90;;;10.60;;
80247;SDS011;69560;52.206;21.018;2024-02-23T01:56:29;12.20;;;10.70;;
80247;SDS011;69560;52.206;21.018;2024-02-23T01:58:56;13.40;;;11.60;;
80247;SDS011;69560;52.206;21.018;2024-02-23T02:01:23;12.20;;;11.00;;
80247;SDS011;69560;52.206;21.018;2024-02-23T02:03:51;12.80;;;11.40;;
80247;SDS011;69560;52.206;21.018;2024-02-23T02:06:18;11.40;;;10.10;;
80247;SDS011;69560;52.206;21.018;2024-02-23T02:08:45;14.00;;;11.10;;
80247;SDS011;69560;52.206;21.018;2024-02-23T02:11:12;12.10;;;10.80;;
80247;SDS011;69560;52.206;21.018;2024-02-23T02:13:38;12.20;;;10.40;;
80247;SDS011;69560;52.206;21.018;2024-02-23T02:16:05;11.10;;;9.70;;
80247;SDS011;69560;52.206;21.018;2024-02-23T02:18:32;10.30;;;9.10;;
80247;SDS011;69560;52.206;21.018;2024-02-23T02:20:59;14.50;;;10.70;;
80247;SDS011;69560;52.206;21.018;2024-02-23T02:23:25;11.90;;;10.70;;
80247;SDS011;69560;52.206;21.018;2024-02-23T02:25:55;11.70;;;10.50;;
80247;SDS011;69560;52.206;21.018;2024-02-23T02:28:23;11.80;;;9.80;;
80247;SDS011;69560;52.206;21.018;2024-02-23T02:30:51;10.60;;;9.50;;
80247;SDS011;69560;52.206;21.018;2024-02-23T02:33:18;10.00;;;8.80;;
80247;SDS011;69560;52.206;21.018;2024-02-23T02:35:45;10.20;;;9.00;;
80247;SDS011;69560;52.206;21.018;2024-02-23T02:38:12;11.00;;;9.00;;
80247;SDS011;69560;52.206;21.018;2024-02-23T02:40:39;10.70;;;9.30;;
80247;SDS011;69560;52.206;21.018;2024-02-23T02:43:06;10.80;;;9.70;;
80247;SDS011;69560;52.206;21.018;2024-02-23T02:45:33;10.30;;;9.20;;
80247;SDS011;69560;52.206;21.018;2024-02-23T02:48:00;12.00;;;8.30;;
80247;SDS011;69560;52.206;21.018;2024-02-23T02:50:30;11.00;;;9.00;;
80247;SDS011;69560;52.206;21.018;2024-02-23T02:52:57;7.70;;;6.90;;
80247;SDS011;69560;52.206;21.018;2024-02-23T02:55:23;9.90;;;8.70;;
80247;SDS011;69560;52.206;21.018;2024-02-23T02:57:50;8.80;;;7.90;;
80247;SDS011;69560;52.206;21.018;2024-02-23T03:00:16;9.50;;;7.90;;
80247;SDS011;69560;52.206;21.018;2024-02-23T03:02:43;11.10;;;8.60;;
80247;SDS011;69560;52.206;21.018;2024-02-23T03:05:09;8.50;;;7.60;;
80247;SDS011;69560;52.206;21.018;2024-02-23T03:07:36;8.80;;;7.80;;
80247;SDS011;69560;52.206;21.018;2024-02-23T03:10:02;8.80;;;7.90;;
80247;SDS011;69560;52.206;21.018;2024-02-23T03:12:29;10.40;;;8.10;;
80247;SDS011;69560;52.206;21.018;2024-02-23T03:14:59;9.00;;;7.60;;
80247;SDS011;69560;52.206;21.018;2024-02-23T03:17:26;8.50;;;7.60;;
80247;SDS011;69560;52.206;21.018;2024-02-23T03:19:52;9.10;;;8.00;;
80247;SDS011;69560;52.206;21.018;2024-02-23T03:22:19;8.60;;;7.50;;
80247;SDS011;69560;52.206;21.018;2024-02-23T03:24:45;7.90;;;7.10;;
80247;SDS011;69560;52.206;21.018;2024-02-23T03:27:12;8.20;;;7.40;;
80247;SDS011;69560;52.206;21.018;2024-02-23T03:29:38;8.30;;;7.50;;
80247;SDS011;69560;52.206;21.018;2024-02-23T03:32:05;8.60;;;6.80;;
80247;SDS011;69560;52.206;21.018;2024-02-23T03:34:32;8.20;;;6.10;;
80247;SDS011;69560;52.206;21.018;2024-02-23T03:36:59;7.00;;;6.30;;
80247;SDS011;69560;52.206;21.018;2024-02-23T03:39:27;8.30;;;6.40;;
80247;SDS011;69560;52.206;21.018;2024-02-23T03:41:54;11.10;;;7.90;;
80247;SDS011;69560;52.206;21.018;2024-02-23T03:44:21;8.80;;;7.50;;
80247;SDS011;69560;52.206;21.018;2024-02-23T03:46:48;8.60;;;7.10;;
80247;SDS011;69560;52.206;21.018;2024-02-23T03:49:14;7.70;;;6.20;;
80247;SDS011;69560;52.206;21.018;2024-02-23T03:51:41;8.80;;;7.10;;
80247;SDS011;69560;52.206;21.018;2024-02-23T03:54:07;7.40;;;6.60;;
80247;SDS011;69560;52.206;21.018;2024-02-23T03:56:40;10.90;;;7.30;;
80247;SDS011;69560;52.206;21.018;2024-02-23T03:59:08;9.80;;;7.20;;
80247;SDS011;69560;52.206;21.018;2024-02-23T04:01:37;7.90;;;6.20;;
80247;SDS011;69560;52.206;21.018;2024-02-23T04:04:05;8.00;;;6.10;;
80247;SDS011;69560;52.206;21.018;2024-02-23T04:06:33;7.30;;;6.20;;
80247;SDS011;69560;52.206;21.018;2024-02-23T04:09:00;8.60;;;7.10;;
80247;SDS011;69560;52.206;21.018;2024-02-23T04:11:26;6.80;;;6.10;;
80247;SDS011;69560;52.206;21.018;2024-02-23T04:13:53;7.80;;;6.90;;
80247;SDS011;69560;52.206;21.018;2024-02-23T04:16:22;6.50;;;5.90;;
80247;SDS011;69560;52.206;21.018;2024-02-23T04:18:50;6.70;;;5.90;;
80247;SDS011;69560;52.206;21.018;2024-02-23T04:21:17;8.20;;;6.70;;
80247;SDS011;69560;52.206;21.018;2024-02-23T04:23:43;8.00;;;6.60;;
80247;SDS011;69560;52.206;21.018;2024-02-23T04:26:10;8.80;;;6.30;;
80247;SDS011;69560;52.206;21.018;2024-02-23T04:28:40;7.90;;;6.10;;
80247;SDS011;69560;52.206;21.018;2024-02-23T04:31:07;7.60;;;6.10;;
80247;SDS011;69560;52.206;21.018;2024-02-23T04:33:35;6.30;;;5.70;;
80247;SDS011;69560;52.206;21.018;2024-02-23T04:36:02;7.80;;;6.10;;
80247;SDS011;69560;52.206;21.018;2024-02-23T04:38:30;8.00;;;5.80;;
80247;SDS011;69560;52.206;21.018;2024-02-23T04:40:57;7.50;;;5.70;;
80247;SDS011;69560;52.206;21.018;2024-02-23T04:43:24;6.90;;;6.10;;
80247;SDS011;69560;52.206;21.018;2024-02-23T04:45:51;7.60;;;6.10;;
80247;SDS011;69560;52.206;21.018;2024-02-23T04:48:18;7.00;;;6.30;;
80247;SDS011;69560;52.206;21.018;2024-02-23T04:50:44;6.20;;;5.60;;
80247;SDS011;69560;52.206;21.018;2024-02-23T04:53:11;6.60;;;5.90;;
80247;SDS011;69560;52.206;21.018;2024-02-23T04:55:37;7.50;;;5.80;;
80247;SDS011;69560;52.206;21.018;2024-02-23T04:58:04;8.50;;;6.10;;
80247;SDS011;69560;52.206;21.018;2024-02-23T05:00:31;8.70;;;6.20;;
80247;SDS011;69560;52.206;21.018;2024-02-23T05:02:59;6.20;;;5.40;;
80247;SDS011;69560;52.206;21.018;2024-02-23T05:05:32;7.80;;;6.00;;
80247;SDS011;69560;52.206;21.018;2024-02-23T05:07:59;6.40;;;5.70;;
80247;SDS011;69560;52.206;21.018;2024-02-23T05:10:26;5.30;;;4.70;;
80247;SDS011;69560;52.206;21.018;2024-02-23T05:12:52;6.70;;;5.60;;
80247;SDS011;69560;52.206;21.018;2024-02-23T05:15:19;7.00;;;5.70;;
80247;SDS011;69560;52.206;21.018;2024-02-23T05:17:46;7.60;;;5.00;;
80247;SDS011;69560;52.206;21.018;2024-02-23T05:20:13;7.20;;;5.00;;
80247;SDS011;69560;52.206;21.018;2024-02-23T05:22:40;6.40;;;5.50;;
80247;SDS011;69560;52.206;21.018;2024-02-23T05:25:06;5.30;;;4.70;;
80247;SDS011;69560;52.206;21.018;2024-02-23T05:27:34;5.80;;;5.20;;
80247;SDS011;69560;52.206;21.018;2024-02-23T05:30:00;6.20;;;5.30;;
80247;SDS011;69560;52.206;21.018;2024-02-23T05:32:27;5.50;;;4.80;;
80247;SDS011;69560;52.206;21.018;2024-02-23T05:34:54;5.50;;;4.70;;
80247;SDS011;69560;52.206;21.018;2024-02-23T05:37:22;6.50;;;5.10;;
80247;SDS011;69560;52.206;21.018;2024-02-23T05:39:50;7.70;;;5.40;;
80247;SDS011;69560;52.206;21.018;2024-02-23T05:42:16;8.80;;;4.90;;
80247;SDS011;69560;52.206;21.018;2024-02-23T05:44:43;6.70;;;4.50;;
80247;SDS011;69560;52.206;21.018;2024-02-23T05:47:11;5.60;;;4.50;;
80247;SDS011;69560;52.206;21.018;2024-02-23T05:49:40;6.00;;;4.70;;
80247;SDS011;69560;52.206;21.018;2024-02-23T05:52:06;6.00;;;4.40;;
80247;SDS011;69560;52.206;21.018;2024-02-23T05:54:33;6.50;;;5.10;;
80247;SDS011;69560;52.206;21.018;2024-02-23T05:56:59;4.90;;;4.30;;
80247;SDS011;69560;52.206;21.018;2024-02-23T05:59:27;5.50;;;4.40;;
80247;SDS011;69560;52.206;21.018;2024-02-23T06:01:54;5.50;;;4.70;;
80247;SDS011;69560;52.206;21.018;2024-02-23T06:04:23;5.60;;;4.30;;
80247;SDS011;69560;52.206;21.018;2024-02-23T06:06:50;5.60;;;4.50;;
80247;SDS011;69560;52.206;21.018;2024-02-23T06:09:16;4.80;;;3.70;;
80247;SDS011;69560;52.206;21.018;2024-02-23T06:11:43;5.70;;;4.50;;
80247;SDS011;69560;52.206;21.018;2024-02-23T06:14:09;5.40;;;4.20;;
80247;SDS011;69560;52.206;21.018;2024-02-23T06:16:37;7.90;;;4.90;;
80247;SDS011;69560;52.206;21.018;2024-02-23T06:19:03;6.40;;;4.30;;
80247;SDS011;69560;52.206;21.018;2024-02-23T06:21:30;5.40;;;4.20;;
80247;SDS011;69560;52.206;21.018;2024-02-23T06:23:58;7.80;;;5.00;;
80247;SDS011;69560;52.206;21.018;2024-02-23T06:26:25;7.90;;;4.10;;
80247;SDS011;69560;52.206;21.018;2024-02-23T06:28:51;5.90;;;4.50;;
80247;SDS011;69560;52.206;21.018;2024-02-23T06:31:18;5.40;;;4.50;;
80247;SDS011;69560;52.206;21.018;2024-02-23T06:33:44;6.00;;;4.60;;
80247;SDS011;69560;52.206;21.018;2024-02-23T06:36:15;6.40;;;5.00;;
80247;SDS011;69560;52.206;21.018;2024-02-23T06:38:42;6.80;;;4.80;;
80247;SDS011;69560;52.206;21.018;2024-02-23T06:41:08;5.30;;;4.10;;
80247;SDS011;69560;52.206;21.018;2024-02-23T06:43:37;6.20;;;4.90;;
80247;SDS011;69560;52.206;21.018;2024-02-23T06:46:05;6.70;;;4.80;;
80247;SDS011;69560;52.206;21.018;2024-02-23T06:48:35;6.50;;;4.60;;
80247;SDS011;69560;52.206;21.018;2024-02-23T06:51:03;8.60;;;5.10;;
80247;SDS011;69560;52.206;21.018;2024-02-23T06:53:36;5.70;;;5.00;;
80247;SDS011;69560;52.206;21.018;2024-02-23T06:56:04;7.40;;;5.00;;
80247;SDS011;69560;52.206;21.018;2024-02-23T06:58:30;5.60;;;5.00;;
80247;SDS011;69560;52.206;21.018;2024-02-23T07:00:57;5.30;;;4.60;;
80247;SDS011;69560;52.206;21.018;2024-02-23T07:03:23;7.10;;;4.20;;
80247;SDS011;69560;52.206;21.018;2024-02-23T07:05:51;4.90;;;4.20;;
80247;SDS011;69560;52.206;21.018;2024-02-23T07:08:18;5.40;;;4.90;;
80247;SDS011;69560;52.206;21.018;2024-02-23T07:10:44;8.90;;;5.10;;
80247;SDS011;69560;52.206;21.018;2024-02-23T07:13:11;5.50;;;4.30;;
80247;SDS011;69560;52.206;21.018;2024-02-23T07:15:38;5.40;;;4.40;;
80247;SDS011;69560;52.206;21.018;2024-02-23T07:18:05;5.80;;;4.90;;
80247;SDS011;69560;52.206;21.018;2024-02-23T07:20:35;8.80;;;4.90;;
80247;SDS011;69560;52.206;21.018;2024-02-23T07:23:02;8.50;;;5.30;;
80247;SDS011;69560;52.206;21.018;2024-02-23T07:25:29;5.40;;;4.70;;
80247;SDS011;69560;52.206;21.018;2024-02-23T07:27:55;7.90;;;4.80;;
80247;SDS011;69560;52.206;21.018;2024-02-23T07:30:22;6.60;;;5.30;;
80247;SDS011;69560;52.206;21.018;2024-02-23T07:32:49;8.20;;;5.00;;
80247;SDS011;69560;52.206;21.018;2024-02-23T07:35:15;6.10;;;4.50;;
80247;SDS011;69560;52.206;21.018;2024-02-23T07:37:42;6.80;;;4.70;;
80247;SDS011;69560;52.206;21.018;2024-02-23T07:40:09;7.90;;;4.50;;
80247;SDS011;69560;52.206;21.018;2024-02-23T07:42:36;5.10;;;4.00;;
80247;SDS011;69560;52.206;21.018;2024-02-23T07:45:03;7.20;;;4.90;;
80247;SDS011;69560;52.206;21.018;2024-02-23T07:47:30;7.00;;;5.40;;
80247;SDS011;69560;52.206;21.018;2024-02-23T07:49:58;6.10;;;5.00;;
80247;SDS011;69560;52.206;21.018;2024-02-23T07:52:24;6.20;;;5.30;;
80247;SDS011;69560;52.206;21.018;2024-02-23T07:54:52;7.10;;;5.30;;
80247;SDS011;69560;52.206;21.018;2024-02-23T07:57:19;6.00;;;4.80;;
80247;SDS011;69560;52.206;21.018;2024-02-23T07:59:46;5.00;;;4.30;;
80247;SDS011;69560;52.206;21.018;2024-02-23T08:02:14;6.90;;;4.90;;
80247;SDS011;69560;52.206;21.018;2024-02-23T08:04:41;8.50;;;5.10;;
80247;SDS011;69560;52.206;21.018;2024-02-23T08:07:08;5.90;;;5.10;;
80247;SDS011;69560;52.206;21.018;2024-02-23T08:09:35;4.90;;;4.30;;
80247;SDS011;69560;52.206;21.018;2024-02-23T08:12:02;7.90;;;5.20;;
80247;SDS011;69560;52.206;21.018;2024-02-23T08:14:29;5.80;;;4.20;;
80247;SDS011;69560;52.206;21.018;2024-02-23T08:16:55;7.30;;;5.10;;
80247;SDS011;69560;52.206;21.018;2024-02-23T08:19:22;6.30;;;4.70;;
80247;SDS011;69560;52.206;21.018;2024-02-23T08:21:48;7.30;;;5.20;;
80247;SDS011;69560;52.206;21.018;2024-02-23T08:24:15;8.00;;;5.60;;
80247;SDS011;69560;52.206;21.018;2024-02-23T08:26:42;8.20;;;5.20;;
80247;SDS011;69560;52.206;21.018;2024-02-23T08:29:09;7.70;;;4.80;;
80247;SDS011;69560;52.206;21.018;2024-02-23T08:31:35;7.50;;;5.10;;
80247;SDS011;69560;52.206;21.018;2024-02-23T08:34:02;7.10;;;5.00;;
80247;SDS011;69560;52.206;21.018;2024-02-23T08:36:28;6.30;;;4.90;;
80247;SDS011;69560;52.206;21.018;2024-02-23T08:38:55;6.70;;;4.90;;
80247;SDS011;69560;52.206;21.018;2024-02-23T08:41:21;6.90;;;4.20;;
80247;SDS011;69560;52.206;21.018;2024-02-23T08:43:48;8.10;;;5.30;;
80247;SDS011;69560;52.206;21.018;2024-02-23T08:46:16;5.80;;;5.20;;
80247;SDS011;69560;52.206;21.018;2024-02-23T08:48:43;8.20;;;5.40;;
80247;SDS011;69560;52.206;21.018;2024-02-23T08:51:10;6.60;;;5.30;;
80247;SDS011;69560;52.206;21.018;2024-02-23T08:53:36;8.30;;;6.00;;
80247;SDS011;69560;52.206;21.018;2024-02-23T08:56:03;6.70;;;5.10;;
80247;SDS011;69560;52.206;21.018;2024-02-23T08:58:30;7.80;;;5.10;;
80247;SDS011;69560;52.206;21.018;2024-02-23T09:00:57;8.10;;;5.10;;
80247;SDS011;69560;52.206;21.018;2024-02-23T09:03:23;7.00;;;5.00;;
80247;SDS011;69560;52.206;21.018;2024-02-23T09:05:50;6.80;;;5.50;;
80247;SDS011;69560;52.206;21.018;2024-02-23T09:08:17;6.60;;;5.00;;
80247;SDS011;69560;52.206;21.018;2024-02-23T09:10:44;7.70;;;5.10;;
80247;SDS011;69560;52.206;21.018;2024-02-23T09:13:10;7.50;;;5.40;;
80247;SDS011;69560;52.206;21.018;2024-02-23T09:15:37;6.70;;;5.00;;
80247;SDS011;69560;52.206;21.018;2024-02-23T09:18:03;7.40;;;5.70;;
80247;SDS011;69560;52.206;21.018;2024-02-23T09:20:30;9.00;;;5.90;;
80247;SDS011;69560;52.206;21.018;2024-02-23T09:22:57;7.00;;;5.10;;
80247;SDS011;69560;52.206;21.018;2024-02-23T09:25:24;9.50;;;6.00;;
80247;SDS011;69560;52.206;21.018;2024-02-23T09:27:50;7.30;;;5.30;;
80247;SDS011;69560;52.206;21.018;2024-02-23T09:30:17;6.70;;;5.10;;
80247;SDS011;69560;52.206;21.018;2024-02-23T09:32:43;9.80;;;5.60;;
80247;SDS011;69560;52.206;21.018;2024-02-23T09:35:10;7.00;;;5.50;;
80247;SDS011;69560;52.206;21.018;2024-02-23T09:37:37;9.20;;;5.70;;
80247;SDS011;69560;52.206;21.018;2024-02-23T09:40:04;8.80;;;6.20;;
80247;SDS011;69560;52.206;21.018;2024-02-23T09:42:31;7.90;;;6.50;;
80247;SDS011;69560;52.206;21.018;2024-02-23T09:44:59;8.00;;;6.20;;
80247;SDS011;69560;52.206;21.018;2024-02-23T09:47:27;9.30;;;5.40;;
80247;SDS011;69560;52.206;21.018;2024-02-23T09:49:55;6.90;;;4.70;;
80247;SDS011;69560;52.206;21.018;2024-02-23T09:52:22;7.70;;;6.00;;
80247;SDS011;69560;52.206;21.018;2024-02-23T09:54:49;8.10;;;6.10;;
80247;SDS011;69560;52.206;21.018;2024-02-23T09:57:16;7.60;;;6.10;;
80247;SDS011;69560;52.206;21.018;2024-02-23T09:59:45;8.80;;;5.80;;
80247;SDS011;69560;52.206;21.018;2024-02-23T10:02:15;8.70;;;6.20;;
80247;SDS011;69560;52.206;21.018;2024-02-23T10:04:43;7.60;;;5.80;;
80247;SDS011;69560;52.206;21.018;2024-02-23T10:07:10;9.70;;;5.80;;
80247;SDS011;69560;52.206;21.018;2024-02-23T10:09:40;9.70;;;6.60;;
80247;SDS011;69560;52.206;21.018;2024-02-23T10:12:07;9.10;;;6.10;;
80247;SDS011;69560;52.206;21.018;2024-02-23T10:14:34;6.50;;;5.60;;
80247;SDS011;69560;52.206;21.018;2024-02-23T10:17:00;8.30;;;5.50;;
80247;SDS011;69560;52.206;21.018;2024-02-23T10:19:28;6.40;;;5.70;;
80247;SDS011;69560;52.206;21.018;2024-02-23T10:21:56;8.70;;;6.30;;
80247;SDS011;69560;52.206;21.018;2024-02-23T10:24:23;10.40;;;6.00;;
80247;SDS011;69560;52.206;21.018;2024-02-23T10:26:51;6.50;;;5.40;;
80247;SDS011;69560;52.206;21.018;2024-02-23T10:29:18;7.30;;;5.80;;
80247;SDS011;69560;52.206;21.018;2024-02-23T10:31:46;8.80;;;6.30;;
80247;SDS011;69560;52.206;21.018;2024-02-23T10:34:17;7.30;;;6.30;;
80247;SDS011;69560;52.206;21.018;2024-02-23T10:36:46;9.70;;;6.10;;
80247;SDS011;69560;52.206;21.018;2024-02-23T10:39:17;6.90;;;5.80;;
80247;SDS011;69560;52.206;21.018;2024-02-23T10:41:53;8.90;;;6.40;;
80247;SDS011;69560;52.206;21.018;2024-02-23T10:44:24;9.50;;;6.60;;
80247;SDS011;69560;52.206;21.018;2024-02-23T10:46:54;9.50;;;6.10;;
80247;SDS011;69560;52.206;21.018;2024-02-23T10:49:23;7.70;;;6.00;;
80247;SDS011;69560;52.206;21.018;2024-02-23T10:51:52;7.80;;;5.80;;
80247;SDS011;69560;52.206;21.018;2024-02-23T10:54:20;7.60;;;6.70;;
80247;SDS011;69560;52.206;21.018;2024-02-23T10:56:48;10.20;;;6.70;;
80247;SDS011;69560;52.206;21.018;2024-02-23T10:59:16;8.40;;;6.60;;
80247;SDS011;69560;52.206;21.018;2024-02-23T11:01:49;7.30;;;6.10;;
80247;SDS011;69560;52.206;21.018;2024-02-23T11:04:17;9.60;;;6.20;;
80247;SDS011;69560;52.206;21.018;2024-02-23T11:06:50;9.50;;;6.60;;
80247;SDS011;69560;52.206;21.018;2024-02-23T11:09:24;8.30;;;6.10;;
80247;SDS011;69560;52.206;21.018;2024-02-23T11:11:52;9.50;;;5.90;;
80247;SDS011;69560;52.206;21.018;2024-02-23T11:14:32;9.10;;;6.60;;
80247;SDS011;69560;52.206;21.018;2024-02-23T11:17:01;10.50;;;7.00;;
80247;SDS011;69560;52.206;21.018;2024-02-23T11:22:03;9.60;;;7.40;;
80247;SDS011;69560;52.206;21.018;2024-02-23T11:24:31;7.30;;;5.60;;
80247;SDS011;69560;52.206;21.018;2024-02-23T11:26:58;8.80;;;6.50;;
80247;SDS011;69560;52.206;21.018;2024-02-23T11:29:27;9.40;;;7.30;;
80247;SDS011;69560;52.206;21.018;2024-02-23T11:31:55;9.80;;;7.30;;
80247;SDS011;69560;52.206;21.018;2024-02-23T11:34:26;10.40;;;6.90;;
80247;SDS011;69560;52.206;21.018;2024-02-23T11:36:54;8.60;;;6.80;;
80247;SDS011;69560;52.206;21.018;2024-02-23T11:39:21;8.70;;;6.50;;
80247;SDS011;69560;52.206;21.018;2024-02-23T11:41:49;9.80;;;7.00;;
80247;SDS011;69560;52.206;21.018;2024-02-23T11:44:17;8.50;;;6.40;;
80247;SDS011;69560;52.206;21.018;2024-02-23T11:46:44;8.60;;;6.50;;
80247;SDS011;69560;52.206;21.018;2024-02-23T11:49:14;13.40;;;7.20;;
80247;SDS011;69560;52.206;21.018;2024-02-23T11:51:42;10.30;;;7.90;;
80247;SDS011;69560;52.206;21.018;2024-02-23T11:54:08;9.30;;;6.60;;
80247;SDS011;69560;52.206;21.018;2024-02-23T11:56:35;7.00;;;6.00;;
80247;SDS011;69560;52.206;21.018;2024-02-23T11:59:02;10.10;;;6.90;;
80247;SDS011;69560;52.206;21.018;2024-02-23T12:01:29;11.40;;;7.40;;
80247;SDS011;69560;52.206;21.018;2024-02-23T12:03:56;9.10;;;7.60;;
80247;SDS011;69560;52.206;21.018;2024-02-23T12:06:23;8.90;;;6.10;;
80247;SDS011;69560;52.206;21.018;2024-02-23T12:08:53;10.60;;;7.40;;
80247;SDS011;69560;52.206;21.018;2024-02-23T12:11:20;11.70;;;7.50;;
80247;SDS011;69560;52.206;21.018;2024-02-23T12:13:47;9.00;;;7.20;;
80247;SDS011;69560;52.206;21.018;2024-02-23T12:16:14;13.40;;;7.80;;
80247;SDS011;69560;52.206;21.018;2024-02-23T12:18:40;9.40;;;7.20;;
80247;SDS011;69560;52.206;21.018;2024-02-23T12:21:08;10.60;;;7.90;;
80247;SDS011;69560;52.206;21.018;2024-02-23T12:23:41;8.20;;;6.90;;
80247;SDS011;69560;52.206;21.018;2024-02-23T12:26:15;9.00;;;7.30;;
80247;SDS011;69560;52.206;21.018;2024-02-23T12:28:43;9.40;;;7.90;;
80247;SDS011;69560;52.206;21.018;2024-02-23T12:31:11;10.30;;;8.00;;
80247;SDS011;69560;52.206;21.018;2024-02-23T12:33:38;10.20;;;7.30;;
80247;SDS011;69560;52.206;21.018;2024-02-23T12:36:06;10.30;;;7.50;;
80247;SDS011;69560;52.206;21.018;2024-02-23T12:38:34;8.80;;;6.10;;
80247;SDS011;69560;52.206;21.018;2024-02-23T12:41:02;8.50;;;7.20;;
80247;SDS011;69560;52.206;21.018;2024-02-23T12:43:29;8.60;;;7.40;;
80247;SDS011;69560;52.206;21.018;2024-02-23T12:45:57;10.40;;;8.10;;
80247;SDS011;69560;52.206;21.018;2024-02-23T12:48:24;11.00;;;8.30;;
80247;SDS011;69560;52.206;21.018;2024-02-23T12:50:51;9.90;;;7.50;;
80247;SDS011;69560;52.206;21.018;2024-02-23T12:53:37;9.50;;;7.30;;
80247;SDS011;69560;52.206;21.018;2024-02-23T12:56:09;8.70;;;7.50;;
80247;SDS011;69560;52.206;21.018;2024-02-23T12:58:38;9.20;;;7.70;;
80247;SDS011;69560;52.206;21.018;2024-02-23T13:01:05;11.30;;;8.00;;
80247;SDS011;69560;52.206;21.018;2024-02-23T13:03:33;10.00;;;8.40;;
80247;SDS011;69560;52.206;21.018;2024-02-23T13:06:01;9.40;;;8.30;;
80247;SDS011;69560;52.206;21.018;2024-02-23T13:08:28;10.40;;;8.30;;
80247;SDS011;69560;52.206;21.018;2024-02-23T13:10:56;11.60;;;8.20;;
80247;SDS011;69560;52.206;21.018;2024-02-23T13:13:23;9.80;;;8.10;;
80247;SDS011;69560;52.206;21.018;2024-02-23T13:15:51;10.30;;;7.70;;
80247;SDS011;69560;52.206;21.018;2024-02-23T13:18:18;9.00;;;8.10;;
80247;SDS011;69560;52.206;21.018;2024-02-23T13:20:45;12.30;;;8.50;;
80247;SDS011;69560;52.206;21.018;2024-02-23T13:23:13;12.50;;;8.20;;
80247;SDS011;69560;52.206;21.018;2024-02-23T13:25:42;9.50;;;7.50;;
80247;SDS011;69560;52.206;21.018;2024-02-23T13:28:09;11.20;;;9.00;;
80247;SDS011;69560;52.206;21.018;2024-02-23T13:30:36;21.20;;;16.10;;
80247;SDS011;69560;52.206;21.018;2024-02-23T13:33:03;12.50;;;9.20;;
80247;SDS011;69560;52.206;21.018;2024-02-23T13:35:31;10.80;;;8.10;;
80247;SDS011;69560;52.206;21.018;2024-02-23T13:37:57;11.00;;;8.60;;
80247;SDS011;69560;52.206;21.018;2024-02-23T13:40:24;9.70;;;8.20;;
80247;SDS011;69560;52.206;21.018;2024-02-23T13:42:50;9.50;;;7.50;;
80247;SDS011;69560;52.206;21.018;2024-02-23T13:45:19;9.00;;;7.90;;
80247;SDS011;69560;52.206;21.018;2024-02-23T13:47:55;9.80;;;7.70;;
80247;SDS011;69560;52.206;21.018;2024-02-23T13:50:23;9.40;;;7.40;;
80247;SDS011;69560;52.206;21.018;2024-02-23T13:52:50;10.00;;;6.90;;
80247;SDS011;69560;52.206;21.018;2024-02-23T13:55:16;10.00;;;7.90;;
80247;SDS011;69560;52.206;21.018;2024-02-23T13:57:43;8.70;;;7.10;;
80247;SDS011;69560;52.206;21.018;2024-02-23T14:00:10;12.00;;;8.00;;
80247;SDS011;69560;52.206;21.018;2024-02-23T14:02:39;10.90;;;7.10;;
80247;SDS011;69560;52.206;21.018;2024-02-23T14:05:09;10.10;;;7.80;;
80247;SDS011;69560;52.206;21.018;2024-02-23T14:07:35;9.20;;;7.80;;
80247;SDS011;69560;52.206;21.018;2024-02-23T14:10:02;10.20;;;7.60;;
80247;SDS011;69560;52.206;21.018;2024-02-23T14:12:30;9.80;;;8.50;;
80247;SDS011;69560;52.206;21.018;2024-02-23T14:14:57;9.30;;;8.20;;
80247;SDS011;69560;52.206;21.018;2024-02-23T14:17:23;11.10;;;8.40;;
80247;SDS011;69560;52.206;21.018;2024-02-23T14:19:51;9.20;;;8.10;;
80247;SDS011;69560;52.206;21.018;2024-02-23T14:22:17;13.90;;;8.60;;
80247;SDS011;69560;52.206;21.018;2024-02-23T14:24:44;14.00;;;8.70;;
80247;SDS011;69560;52.206;21.018;2024-02-23T14:27:11;12.40;;;9.20;;
80247;SDS011;69560;52.206;21.018;2024-02-23T14:29:37;13.60;;;9.30;;
80247;SDS011;69560;52.206;21.018;2024-02-23T14:32:04;12.00;;;10.00;;